createdAt,value
2018-09-24T00:01:27.900Z,2.10
2018-09-24T00:03:56.540Z,2.17
2018-09-24T00:06:25.612Z,2.60
2018-09-24T00:08:54.227Z,2.20
2018-09-24T00:11:22.808Z,1.80
2018-09-24T00:13:51.278Z,2.50
2018-09-24T00:16:19.896Z,2.17
2018-09-24T00:18:48.362Z,1.67
2018-09-24T00:21:16.908Z,2.00
2018-09-24T00:23:45.338Z,2.03
2018-09-24T00:26:13.927Z,2.07
2018-09-24T00:28:42.428Z,2.10
2018-09-24T00:31:10.925Z,2.40
2018-09-24T00:33:39.824Z,2.10
2018-09-24T00:36:08.309Z,2.00
2018-09-24T00:38:36.847Z,1.83
2018-09-24T00:41:05.344Z,2.20
2018-09-24T00:43:33.832Z,1.93
2018-09-24T00:46:02.741Z,2.20
2018-09-24T00:48:31.340Z,2.13
2018-09-24T00:50:59.857Z,1.97
2018-09-24T00:53:28.384Z,1.73
2018-09-24T00:55:56.958Z,2.60
2018-09-24T00:58:25.636Z,2.27
2018-09-24T01:00:54.352Z,2.17
2018-09-24T01:03:22.917Z,1.97
2018-09-24T01:05:51.491Z,2.10
2018-09-24T01:08:19.982Z,2.73
2018-09-24T01:10:48.627Z,2.87
2018-09-24T01:13:17.567Z,2.23
2018-09-24T01:15:46.132Z,2.63
2018-09-24T01:18:14.704Z,2.60
2018-09-24T01:20:43.236Z,2.33
2018-09-24T01:23:11.765Z,3.37
2018-09-24T01:25:40.468Z,2.60
2018-09-24T01:28:09.064Z,2.43
2018-09-24T01:30:37.843Z,2.60
2018-09-24T01:33:06.864Z,2.27
2018-09-24T01:35:35.750Z,2.53
2018-09-24T01:38:04.488Z,2.50
2018-09-24T01:40:33.502Z,2.53
2018-09-24T01:43:02.593Z,3.13
2018-09-24T01:45:31.466Z,2.77
2018-09-24T01:48:00.157Z,2.93
2018-09-24T01:50:28.738Z,2.30
2018-09-24T01:53:02.115Z,2.70
2018-09-24T01:55:30.861Z,2.70
2018-09-24T01:57:59.400Z,2.27
2018-09-24T02:00:28.394Z,2.00
2018-09-24T02:02:56.920Z,2.07
2018-09-24T02:05:25.813Z,2.60
2018-09-24T02:07:54.513Z,2.20
2018-09-24T02:10:24.889Z,2.40
2018-09-24T02:12:58.100Z,2.30
2018-09-24T02:15:31.699Z,2.30
2018-09-24T02:18:00.285Z,2.40
2018-09-24T02:20:29.426Z,2.50
2018-09-24T02:22:58.210Z,1.83
2018-09-24T02:25:27.373Z,2.27
2018-09-24T02:27:56.090Z,2.40
2018-09-24T02:30:24.685Z,2.40
2018-09-24T02:32:53.319Z,2.10
2018-09-24T02:35:21.943Z,2.03
2018-09-24T02:37:50.987Z,2.40
2018-09-24T02:40:22.553Z,2.57
2018-09-24T02:42:51.246Z,2.30
2018-09-24T02:45:20.068Z,2.37
2018-09-24T02:47:49.153Z,2.10
2018-09-24T02:50:17.676Z,2.53
2018-09-24T02:52:46.189Z,2.00
2018-09-24T02:55:16.788Z,2.60
2018-09-24T02:57:45.609Z,2.40
2018-09-24T03:00:20.976Z,2.00
2018-09-24T03:02:49.874Z,2.50
2018-09-24T03:05:18.377Z,2.40
2018-09-24T03:07:47.344Z,2.33
2018-09-24T03:10:16.253Z,2.43
2018-09-24T03:12:48.359Z,2.50
2018-09-24T03:15:16.897Z,1.90
2018-09-24T03:17:45.482Z,2.43
2018-09-24T03:20:14.128Z,2.47
2018-09-24T03:22:42.667Z,2.20
2018-09-24T03:25:16.505Z,2.20
2018-09-24T03:27:45.496Z,1.60
2018-09-24T03:30:14.113Z,2.00
2018-09-24T03:32:42.709Z,2.50
2018-09-24T03:35:11.230Z,2.40
2018-09-24T03:37:40.278Z,2.07
2018-09-24T03:40:08.850Z,1.93
2018-09-24T03:42:37.538Z,2.00
2018-09-24T03:45:06.116Z,2.20
2018-09-24T03:47:35.218Z,2.03
2018-09-24T03:50:04.001Z,2.10
2018-09-24T03:52:32.503Z,2.30
2018-09-24T03:55:01.355Z,2.20
2018-09-24T03:57:30.024Z,2.30
2018-09-24T03:59:58.989Z,2.70
2018-09-24T04:02:27.803Z,1.77
2018-09-24T04:05:01.632Z,2.07
2018-09-24T04:07:35.356Z,2.30
2018-09-24T04:10:09.352Z,2.10
2018-09-24T04:12:43.220Z,2.00
2018-09-24T04:15:17.774Z,2.10
2018-09-24T04:17:51.481Z,1.57
2018-09-24T04:20:25.340Z,2.17
2018-09-24T04:23:00.351Z,1.90
2018-09-24T04:25:34.386Z,1.80
2018-09-24T04:28:08.283Z,1.60
2018-09-24T04:30:42.286Z,1.90
2018-09-24T04:33:16.539Z,2.07
2018-09-24T04:35:50.559Z,1.60
2018-09-24T04:38:24.594Z,2.00
2018-09-24T04:40:58.389Z,1.80
2018-09-24T04:43:32.792Z,1.80
2018-09-24T04:46:07.139Z,2.20
2018-09-24T04:48:41.183Z,1.80
2018-09-24T04:51:15.895Z,1.93
2018-09-24T04:53:49.874Z,2.40
2018-09-24T04:56:24.312Z,2.43
2018-09-24T04:58:58.200Z,2.33
2018-09-24T05:01:32.082Z,1.73
2018-09-24T05:04:06.079Z,1.50
2018-09-24T05:06:40.051Z,1.97
2018-09-24T05:09:14.263Z,1.93
2018-09-24T05:11:48.230Z,2.00
2018-09-24T05:14:22.125Z,2.03
2018-09-24T05:16:56.159Z,1.97
2018-09-24T05:19:30.033Z,1.53
2018-09-24T05:22:04.040Z,1.90
2018-09-24T05:24:38.372Z,1.23
2018-09-24T05:27:12.454Z,1.63
2018-09-24T05:29:46.286Z,2.13
2018-09-24T05:32:20.145Z,1.67
2018-09-24T05:34:54.454Z,1.63
2018-09-24T05:37:28.383Z,1.53
2018-09-24T05:40:02.568Z,1.70
2018-09-24T05:42:36.509Z,2.30
2018-09-24T05:45:10.778Z,1.77
2018-09-24T05:47:44.746Z,2.10
2018-09-24T05:50:18.595Z,1.90
2018-09-24T05:52:52.428Z,1.97
2018-09-24T05:55:26.411Z,1.67
2018-09-24T05:58:00.136Z,1.50
2018-09-24T06:00:34.039Z,2.23
2018-09-24T06:03:08.434Z,1.53
2018-09-24T06:05:42.423Z,1.73
2018-09-24T06:08:16.218Z,1.87
2018-09-24T06:10:50.557Z,2.73
2018-09-24T06:13:24.461Z,2.03
2018-09-24T06:15:58.388Z,1.83
2018-09-24T06:18:32.534Z,2.03
2018-09-24T06:21:06.463Z,2.00
2018-09-24T06:23:40.371Z,1.90
2018-09-24T06:26:14.283Z,2.10
2018-09-24T06:28:48.041Z,2.33
2018-09-24T06:31:22.065Z,1.87
2018-09-24T06:34:02.950Z,2.10
2018-09-24T06:36:36.925Z,1.87
2018-09-24T06:39:13.026Z,1.90
2018-09-24T06:41:47.098Z,1.90
2018-09-24T06:44:20.903Z,1.77
2018-09-24T06:46:54.693Z,1.90
2018-09-24T06:49:28.596Z,1.60
2018-09-24T06:52:02.558Z,2.23
2018-09-24T06:54:37.092Z,1.63
2018-09-24T06:57:11.428Z,2.00
2018-09-24T06:59:47.008Z,2.67
2018-09-24T07:02:20.680Z,2.00
2018-09-24T07:04:54.715Z,2.00
2018-09-24T07:07:28.672Z,1.63
2018-09-24T07:10:02.580Z,2.77
2018-09-24T07:12:36.977Z,1.67
2018-09-24T07:15:10.966Z,1.87
2018-09-24T07:17:45.073Z,1.70
2018-09-24T07:20:18.941Z,1.50
2018-09-24T07:22:53.066Z,1.77
2018-09-24T07:25:27.151Z,1.77
2018-09-24T07:28:01.286Z,1.60
2018-09-24T07:30:34.991Z,1.57
2018-09-24T07:33:09.170Z,1.27
2018-09-24T07:35:43.000Z,1.87
2018-09-24T07:38:17.118Z,1.80
2018-09-24T07:40:51.062Z,1.57
2018-09-24T07:43:25.271Z,2.07
2018-09-24T07:45:59.213Z,1.77
2018-09-24T07:48:32.985Z,1.30
2018-09-24T07:51:06.770Z,1.50
2018-09-24T07:53:40.693Z,1.40
2018-09-24T07:56:14.608Z,1.53
2018-09-24T07:58:48.600Z,1.77
2018-09-24T08:01:23.021Z,1.90
2018-09-24T08:03:57.025Z,1.27
2018-09-24T08:06:30.996Z,2.07
2018-09-24T08:09:06.468Z,1.43
2018-09-24T08:11:40.308Z,1.13
2018-09-24T08:14:14.363Z,1.23
2018-09-24T08:16:48.122Z,1.67
2018-09-24T08:19:21.909Z,1.40
2018-09-24T08:21:55.766Z,1.53
2018-09-24T08:24:29.618Z,1.30
2018-09-24T08:27:03.506Z,1.47
2018-09-24T08:29:37.520Z,1.53
2018-09-24T08:32:12.206Z,1.23
2018-09-24T08:34:47.245Z,1.67
2018-09-24T08:37:22.241Z,1.53
2018-09-24T08:39:56.540Z,1.57
2018-09-24T08:42:30.434Z,1.43
2018-09-24T08:45:05.558Z,1.63
2018-09-24T08:47:39.997Z,1.47
2018-09-24T08:50:14.803Z,1.30
2018-09-24T08:52:49.440Z,1.63
2018-09-24T08:55:23.578Z,1.43
2018-09-24T08:57:58.002Z,1.67
2018-09-24T09:00:32.147Z,1.60
2018-09-24T09:03:09.524Z,1.13
2018-09-24T09:05:44.145Z,1.40
2018-09-24T09:08:20.020Z,1.80
2018-09-24T09:10:54.498Z,1.47
2018-09-24T09:13:29.360Z,1.57
2018-09-24T09:16:03.549Z,1.10
2018-09-24T09:18:39.019Z,1.67
2018-09-24T09:21:14.356Z,1.30
2018-09-24T09:23:49.923Z,1.57
2018-09-24T09:26:28.064Z,1.40
2018-09-24T09:29:05.773Z,0.80
2018-09-24T09:31:40.212Z,1.13
2018-09-24T09:34:14.519Z,1.40
2018-09-24T09:36:51.438Z,1.40
2018-09-24T09:39:25.857Z,1.70
2018-09-24T09:42:01.761Z,1.60
2018-09-24T09:44:37.017Z,0.93
2018-09-24T09:47:13.710Z,1.17
2018-09-24T09:49:50.334Z,1.23
2018-09-24T09:52:26.125Z,1.40
2018-09-24T09:55:01.371Z,1.33
2018-09-24T09:57:37.423Z,1.00
2018-09-24T10:00:11.812Z,1.27
2018-09-24T10:02:46.308Z,0.83
2018-09-24T10:05:20.692Z,1.23
2018-09-24T10:07:54.652Z,1.00
2018-09-24T10:10:29.085Z,1.17
2018-09-24T10:13:03.287Z,1.10
2018-09-24T10:15:37.727Z,1.10
2018-09-24T10:18:13.226Z,1.20
2018-09-24T10:20:47.814Z,1.40
2018-09-24T10:23:22.696Z,1.40
2018-09-24T10:25:58.124Z,1.20
2018-09-24T10:28:32.678Z,0.90
2018-09-24T10:31:06.466Z,1.20
2018-09-24T10:33:40.925Z,1.27
2018-09-24T10:36:14.777Z,1.13
2018-09-24T10:38:48.753Z,1.37
2018-09-24T10:41:22.509Z,0.83
2018-09-24T10:43:56.651Z,1.10
2018-09-24T10:46:30.561Z,0.70
2018-09-24T10:49:05.300Z,0.77
2018-09-24T10:51:40.363Z,0.73
2018-09-24T10:54:14.407Z,1.30
2018-09-24T10:56:48.501Z,0.90
2018-09-24T10:59:23.157Z,1.00
2018-09-24T11:01:57.362Z,0.80
2018-09-24T11:04:31.884Z,1.00
2018-09-24T11:07:05.844Z,0.90
2018-09-24T11:09:39.877Z,1.03
2018-09-24T11:12:14.068Z,1.03
2018-09-24T11:14:47.972Z,0.77
2018-09-24T11:17:22.528Z,0.60
2018-09-24T11:19:56.425Z,1.13
2018-09-24T11:22:30.492Z,0.90
2018-09-24T11:25:05.691Z,1.10
2018-09-24T11:27:40.520Z,1.20
2018-09-24T11:30:15.615Z,1.20
2018-09-24T11:32:49.720Z,1.03
2018-09-24T11:35:23.862Z,1.00
2018-09-24T11:37:57.983Z,0.93
2018-09-24T11:40:33.438Z,0.93
2018-09-24T11:43:08.459Z,1.17
2018-09-24T11:45:42.513Z,1.30
2018-09-24T11:48:16.396Z,1.27
2018-09-24T11:50:50.671Z,1.07
2018-09-24T11:53:25.324Z,1.00
2018-09-24T11:55:59.808Z,1.10
2018-09-24T11:58:35.374Z,0.83
2018-09-24T12:01:09.500Z,1.00
2018-09-24T12:03:43.586Z,0.83
2018-09-24T12:06:19.139Z,0.70
2018-09-24T12:08:54.042Z,0.93
2018-09-24T12:11:28.268Z,0.77
2018-09-24T12:14:02.241Z,0.60
2018-09-24T12:16:36.355Z,0.80
2018-09-24T12:19:10.689Z,0.70
2018-09-24T12:21:44.920Z,0.60
2018-09-24T12:24:19.067Z,0.80
2018-09-24T12:26:52.984Z,0.80
2018-09-24T12:29:26.925Z,0.90
2018-09-24T12:32:00.999Z,0.70
2018-09-24T12:34:35.932Z,0.97
2018-09-24T12:37:09.943Z,1.20
2018-09-24T12:39:44.362Z,0.83
2018-09-24T12:42:18.350Z,1.30
2018-09-24T12:44:53.161Z,1.13
2018-09-24T12:47:27.702Z,0.90
2018-09-24T12:50:02.610Z,1.10
2018-09-24T12:52:37.865Z,1.10
2018-09-24T12:55:12.262Z,1.00
2018-09-24T12:57:46.250Z,1.03
2018-09-24T13:00:20.358Z,1.00
2018-09-24T13:02:55.119Z,0.90
2018-09-24T13:05:29.070Z,1.00
2018-09-24T13:08:03.557Z,0.80
2018-09-24T13:10:37.711Z,1.03
2018-09-24T13:13:12.068Z,1.07
2018-09-24T13:15:46.241Z,1.00
2018-09-24T13:18:20.253Z,0.90
2018-09-24T13:20:54.132Z,1.37
2018-09-24T13:23:28.483Z,0.77
2018-09-24T13:26:02.555Z,1.10
2018-09-24T13:28:36.488Z,1.00
2018-09-24T13:31:10.993Z,2.10
2018-09-24T13:33:45.122Z,1.20
2018-09-24T13:36:19.144Z,1.30
2018-09-24T13:38:53.709Z,1.23
2018-09-24T13:41:28.367Z,0.73
2018-09-24T13:44:02.978Z,0.97
2018-09-24T13:46:36.921Z,0.83
2018-09-24T13:49:11.022Z,0.63
2018-09-24T13:51:46.717Z,0.60
2018-09-24T13:54:21.329Z,0.60
2018-09-24T13:56:55.855Z,1.00
2018-09-24T13:59:30.338Z,0.57
2018-09-24T14:02:04.245Z,0.30
2018-09-24T14:04:39.296Z,0.43
2018-09-24T14:07:15.148Z,0.60
2018-09-24T14:09:49.374Z,0.60
2018-09-24T14:12:23.915Z,0.40
2018-09-24T14:14:58.642Z,0.40
2018-09-24T14:17:33.226Z,0.40
2018-09-24T14:20:07.142Z,0.70
2018-09-24T14:22:41.338Z,0.40
2018-09-24T14:25:16.217Z,0.30
2018-09-24T14:27:52.662Z,0.40
2018-09-24T14:30:27.366Z,0.40
2018-09-24T14:33:02.102Z,0.40
2018-09-24T14:35:36.896Z,0.50
2018-09-24T14:38:11.522Z,0.60
2018-09-24T14:40:46.360Z,0.90
2018-09-24T14:43:21.833Z,0.73
2018-09-24T14:45:56.405Z,0.87
2018-09-24T14:48:30.871Z,0.73
2018-09-24T14:51:05.473Z,0.67
2018-09-24T14:53:40.315Z,0.40
2018-09-24T14:56:15.584Z,0.33
2018-09-24T14:58:50.124Z,0.37
2018-09-24T15:01:24.688Z,0.90
2018-09-24T15:03:59.609Z,0.53
2018-09-24T15:06:35.721Z,0.97
2018-09-24T15:09:12.502Z,0.30
2018-09-24T15:11:47.169Z,0.40
2018-09-24T15:14:21.895Z,0.63
2018-09-24T15:16:56.632Z,0.80
2018-09-24T15:19:31.724Z,0.57
2018-09-24T15:22:06.764Z,0.73
2018-09-24T15:24:41.466Z,0.50
2018-09-24T15:27:16.764Z,0.50
2018-09-24T15:29:51.517Z,0.83
2018-09-24T15:32:26.211Z,0.40
2018-09-24T15:35:02.144Z,0.50
2018-09-24T15:37:36.568Z,0.67
2018-09-24T15:40:11.814Z,0.53
2018-09-24T15:42:46.205Z,0.40
2018-09-24T15:45:20.521Z,0.30
2018-09-24T15:47:54.983Z,0.60
2018-09-24T15:50:29.949Z,0.80
2018-09-24T15:53:05.333Z,0.87
2018-09-24T15:55:40.290Z,0.60
2018-09-24T15:58:14.706Z,0.53
2018-09-24T16:00:49.104Z,0.80
2018-09-24T16:03:23.700Z,0.50
2018-09-24T16:05:58.972Z,0.60
2018-09-24T16:08:34.477Z,0.47
2018-09-24T16:11:09.121Z,0.93
2018-09-24T16:13:44.155Z,0.57
2018-09-24T16:16:18.542Z,0.40
2018-09-24T16:18:52.710Z,0.57
2018-09-24T16:21:27.306Z,0.40
2018-09-24T16:24:01.639Z,0.63
2018-09-24T16:26:36.556Z,0.60
2018-09-24T16:29:11.495Z,0.97
2018-09-24T16:31:46.982Z,0.60
2018-09-24T16:34:21.503Z,0.87
2018-09-24T16:36:56.891Z,0.70
2018-09-24T16:39:31.830Z,1.03
2018-09-24T16:42:06.154Z,0.50
2018-09-24T16:44:40.132Z,0.50
2018-09-24T16:47:14.943Z,0.60
2018-09-24T16:49:49.469Z,0.83
2018-09-24T16:52:23.617Z,0.90
2018-09-24T16:54:57.972Z,0.80
2018-09-24T16:57:31.937Z,0.60
2018-09-24T17:00:07.011Z,0.80
2018-09-24T17:02:41.733Z,0.90
2018-09-24T17:05:17.062Z,1.00
2018-09-24T17:07:51.246Z,0.90
2018-09-24T17:10:27.572Z,1.00
2018-09-24T17:13:01.981Z,0.77
2018-09-24T17:15:36.311Z,0.97
2018-09-24T17:18:10.346Z,0.83
2018-09-24T17:20:44.183Z,1.00
2018-09-24T17:23:18.289Z,0.77
2018-09-24T17:25:53.039Z,0.90
2018-09-24T17:28:27.088Z,0.80
2018-09-24T17:31:01.186Z,0.80
2018-09-24T17:33:35.155Z,1.03
2018-09-24T17:36:09.151Z,1.23
2018-09-24T17:38:42.964Z,1.13
2018-09-24T17:41:16.923Z,1.20
2018-09-24T17:43:51.137Z,0.93
2018-09-24T17:46:25.148Z,0.83
2018-09-24T17:48:59.590Z,0.93
2018-09-24T17:51:34.275Z,0.90
2018-09-24T17:54:08.622Z,1.60
2018-09-24T17:56:43.199Z,0.93
2018-09-24T17:59:17.326Z,1.17
2018-09-24T18:01:51.477Z,0.93
2018-09-24T18:04:26.365Z,1.07
2018-09-24T18:07:00.374Z,0.70
2018-09-24T18:09:34.295Z,1.20
2018-09-24T18:12:08.567Z,1.27
2018-09-24T18:14:42.749Z,1.27
2018-09-24T18:17:16.859Z,1.00
2018-09-24T18:19:50.926Z,0.70
2018-09-24T18:22:25.079Z,1.63
2018-09-24T18:24:59.102Z,1.20
2018-09-24T18:27:33.596Z,1.80
2018-09-24T18:30:07.800Z,1.20
2018-09-24T18:32:42.000Z,1.63
2018-09-24T18:35:16.533Z,1.20
2018-09-24T18:37:50.649Z,1.37
2018-09-24T18:40:25.156Z,1.30
2018-09-24T18:42:59.035Z,1.60
2018-09-24T18:45:33.373Z,1.27
2018-09-24T18:48:07.579Z,1.77
2018-09-24T18:50:42.388Z,1.03
2018-09-24T18:53:16.404Z,1.20
2018-09-24T18:55:50.450Z,0.73
2018-09-24T18:58:24.468Z,1.27
2018-09-24T19:00:58.656Z,0.90
2018-09-24T19:03:32.552Z,1.00
2018-09-24T19:06:06.805Z,1.10
2018-09-24T19:08:40.730Z,0.87
2018-09-24T19:11:15.285Z,1.00
2018-09-24T19:13:49.304Z,1.27
2018-09-24T19:16:23.275Z,1.17
2018-09-24T19:18:57.320Z,1.23
2018-09-24T19:21:31.546Z,1.47
2018-09-24T19:24:05.598Z,1.60
2018-09-24T19:26:39.754Z,1.47
2018-09-24T19:29:13.763Z,1.50
2018-09-24T19:31:48.480Z,1.83
2018-09-24T19:34:22.588Z,1.40
2018-09-24T19:36:57.030Z,1.53
2018-09-24T19:39:31.024Z,1.60
2018-09-24T19:42:05.273Z,1.60
2018-09-24T19:44:39.507Z,1.67
2018-09-24T19:47:13.410Z,1.33
2018-09-24T19:49:47.422Z,1.63
2018-09-24T19:52:21.269Z,1.17
2018-09-24T19:54:55.387Z,1.23
2018-09-24T19:57:29.880Z,1.70
2018-09-24T20:00:03.902Z,1.50
2018-09-24T20:02:38.318Z,1.30
2018-09-24T20:05:12.181Z,1.70
2018-09-24T20:07:46.162Z,1.40
2018-09-24T20:10:20.353Z,1.00
2018-09-24T20:12:54.286Z,1.33
2018-09-24T20:15:28.664Z,1.30
2018-09-24T20:18:02.786Z,1.07
2018-09-24T20:20:38.088Z,1.30
2018-09-24T20:23:12.354Z,1.10
2018-09-24T20:25:46.778Z,1.20
2018-09-24T20:28:20.548Z,1.00
2018-09-24T20:30:54.449Z,0.90
2018-09-24T20:33:28.619Z,1.20
2018-09-24T20:36:02.450Z,1.17
2018-09-24T20:38:36.394Z,1.10
2018-09-24T20:41:10.182Z,1.20
2018-09-24T20:43:44.679Z,1.60
2018-09-24T20:46:18.541Z,1.17
2018-09-24T20:48:52.345Z,2.20
2018-09-24T20:51:26.346Z,1.30
2018-09-24T20:54:00.346Z,1.50
2018-09-24T20:56:34.633Z,1.37
2018-09-24T20:59:08.988Z,0.93
2018-09-24T21:01:42.940Z,1.10
2018-09-24T21:04:16.906Z,1.83
2018-09-24T21:06:50.666Z,0.83
2018-09-24T21:09:24.519Z,1.03
2018-09-24T21:11:58.474Z,1.03
2018-09-24T21:14:32.365Z,0.93
2018-09-24T21:17:06.098Z,1.03
2018-09-24T21:19:39.938Z,1.73
2018-09-24T21:22:13.934Z,1.00
2018-09-24T21:24:48.488Z,0.90
2018-09-24T21:27:23.251Z,1.20
2018-09-24T21:29:56.992Z,1.27
2018-09-24T21:32:30.790Z,1.00
2018-09-24T21:35:04.740Z,1.00
2018-09-24T21:37:38.832Z,0.87
2018-09-24T21:40:13.050Z,1.43
2018-09-24T21:42:47.142Z,1.10
2018-09-24T21:45:21.042Z,1.83
2018-09-24T21:47:55.013Z,1.37
2018-09-24T21:50:28.964Z,0.97
2018-09-24T21:53:03.231Z,1.77
2018-09-24T21:55:37.255Z,1.20
2018-09-24T21:58:11.251Z,1.20
2018-09-24T22:00:45.247Z,1.20
2018-09-24T22:03:19.163Z,1.43
2018-09-24T22:05:52.956Z,1.20
2018-09-24T22:08:26.801Z,1.67
2018-09-24T22:11:00.770Z,1.40
2018-09-24T22:13:34.749Z,1.33
2018-09-24T22:16:08.785Z,1.57
2018-09-24T22:18:42.541Z,1.43
2018-09-24T22:21:16.337Z,1.40
2018-09-24T22:23:50.281Z,1.20
2018-09-24T22:26:24.201Z,1.60
2018-09-24T22:28:58.260Z,1.23
2018-09-24T22:31:32.093Z,1.30
2018-09-24T22:34:06.067Z,1.40
2018-09-24T22:36:39.927Z,1.40
2018-09-24T22:39:14.370Z,0.97
2018-09-24T22:41:48.524Z,1.03
2018-09-24T22:44:22.565Z,1.10
2018-09-24T22:46:56.321Z,1.17
2018-09-24T22:49:30.081Z,1.20
2018-09-24T22:52:04.076Z,1.67
2018-09-24T22:54:38.306Z,1.40
2018-09-24T22:57:12.255Z,1.07
2018-09-24T22:59:46.148Z,1.43
2018-09-24T23:02:20.048Z,1.40
2018-09-24T23:04:54.439Z,1.70
2018-09-24T23:07:28.517Z,1.50
2018-09-24T23:10:02.327Z,1.43
2018-09-24T23:12:36.214Z,1.47
2018-09-24T23:15:10.489Z,1.50
2018-09-24T23:17:44.556Z,1.30
2018-09-24T23:20:18.576Z,1.30
2018-09-24T23:22:52.584Z,1.93
2018-09-24T23:25:26.351Z,1.33
2018-09-24T23:28:00.186Z,1.63
2018-09-24T23:30:33.911Z,1.77
2018-09-24T23:33:07.720Z,1.93
2018-09-24T23:35:41.700Z,1.80
2018-09-24T23:38:15.616Z,2.37
2018-09-24T23:40:49.629Z,1.70
2018-09-24T23:43:23.468Z,2.10
2018-09-24T23:45:57.232Z,1.60
2018-09-24T23:48:31.171Z,1.90
2018-09-24T23:51:04.963Z,1.57
2018-09-24T23:53:38.943Z,2.00
2018-09-24T23:56:12.907Z,2.10
2018-09-24T23:58:46.890Z,1.90
